Time;durP1;ratioP1;P1;durP2;ratioP2;P2;SDS_P1;SDS_P2;PMS_P1;PMS_P2;Temp;Humidity;BMP_temperature;BMP_pressure;BME280_temperature;BME280_humidity;BME280_pressure;Samples;Min_cycle;Max_cycle;Signal;HPM_P1;HPM_P2
2022/05/01 00:02:08;;;;;;;;;;;;;;;25.06;36.73;94545.34;4934347;28;7251;-56
2022/05/01 00:04:34;;;;;;;;;;;;;;;25.05;36.17;94543.88;4970373;28;9143;-56
2022/05/01 00:07:00;;;;;;;;;;;;;;;25.06;36.71;94539.84;4988310;28;9071;-57
2022/05/01 00:09:35;;;;;;;;;;;;;;;25.03;36.96;94549.13;4980963;28;7297;-56
2022/05/01 00:12:07;;;;;;;;;;;;;;;25.03;36.85;94543.63;4988420;28;7197;-57
2022/05/01 00:14:35;;;;;;;;;;;;;;;25.03;36.87;94544.38;4987735;28;7091;-56
2022/05/01 00:17:14;;;;;;;;;;;;;;;25.01;36.89;94541.34;4984310;28;7048;-58
2022/05/01 00:19:51;;;;;;;;;;;;;;;25.01;36.55;94544.09;4991314;28;9069;-57
2022/05/01 00:22:22;;;;;;;;;;;;;;;25.02;36.71;94542.09;4985236;28;9398;-57
2022/05/01 00:24:49;;;;;;;;;;;;;;;25.01;37.02;94543.38;4990383;28;7232;-57
2022/05/01 00:27:19;;;;;;;;;;;;;;;25.00;36.92;94542.63;4991869;28;9055;-57
2022/05/01 00:29:45;;;;;;;;;;;;;;;24.98;36.81;94549.88;5009513;28;7253;-57
2022/05/01 00:32:13;;;;;;;;;;;;;;;24.96;37.04;94550.38;5001134;28;7205;-57
2022/05/01 00:37:31;;;;;;;;;;;;;;;24.99;37.13;94540.38;4981571;28;9082;-57
2022/05/01 00:40:02;;;;;;;;;;;;;;;24.98;36.96;94547.13;4991622;28;9461;-57
2022/05/01 00:42:34;;;;;;;;;;;;;;;24.96;36.93;94539.38;4987746;28;8057;-57
2022/05/01 00:45:00;;;;;;;;;;;;;;;24.93;36.80;94537.63;4981696;28;9184;-57
2022/05/01 00:47:25;;;;;;;;;;;;;;;24.95;36.78;94542.63;4983864;28;7464;-57
2022/05/01 00:49:51;;;;;;;;;;;;;;;24.93;37.66;94539.63;4983163;28;7156;-57
2022/05/01 00:52:19;;;;;;;;;;;;;;;24.94;37.01;94532.88;4987548;28;9041;-57
2022/05/01 00:54:47;;;;;;;;;;;;;;;24.94;37.40;94532.88;5001937;28;7246;-57
2022/05/01 00:57:14;;;;;;;;;;;;;;;24.97;36.89;94531.88;4985396;28;7111;-57
2022/05/01 00:59:41;;;;;;;;;;;;;;;24.91;36.88;94529.13;4978052;28;6990;-57
2022/05/01 01:02:09;;;;;;;;;;;;;;;24.91;37.08;94528.38;4997018;28;7238;-57
2022/05/01 01:04:35;;;;;;;;;;;;;;;24.93;37.01;94534.88;4981560;28;8736;-57
2022/05/01 01:07:02;;;;;;;;;;;;;;;24.91;37.20;94520.13;4978835;28;9035;-57
2022/05/01 01:09:31;;;;;;;;;;;;;;;24.89;37.43;94526.13;4983379;28;7134;-57
2022/05/01 01:14:46;;;;;;;;;;;;;;;24.85;37.07;94519.38;4955553;28;7278;-57
2022/05/01 01:17:14;;;;;;;;;;;;;;;24.88;36.71;94515.63;4936993;28;7904;-57
2022/05/01 01:19:40;;;;;;;;;;;;;;;24.87;36.75;94525.88;4930662;28;9143;-57
2022/05/01 01:22:08;;;;;;;;;;;;;;;24.88;37.10;94523.88;4929450;28;9436;-57
2022/05/01 01:24:39;;;;;;;;;;;;;;;24.85;37.04;94513.88;4945089;28;9494;-57
2022/05/01 01:27:05;;;;;;;;;;;;;;;24.84;37.56;94520.66;4950313;28;7273;-57
2022/05/01 01:32:18;;;;;;;;;;;;;;;24.85;37.30;94508.38;4947439;28;9847;-57
2022/05/01 01:34:45;;;;;;;;;;;;;;;24.84;37.17;94509.66;4945929;28;8968;-57
2022/05/01 01:37:16;;;;;;;;;;;;;;;24.83;37.34;94505.38;4929673;28;7752;-57
2022/05/01 01:39:45;;;;;;;;;;;;;;;24.84;37.09;94506.91;4940909;28;7182;-57
2022/05/01 01:42:15;;;;;;;;;;;;;;;24.84;37.00;94504.16;4952416;28;7058;-57
2022/05/01 01:44:42;;;;;;;;;;;;;;;24.84;37.08;94502.13;4932992;28;7477;-57
2022/05/01 01:47:13;;;;;;;;;;;;;;;24.84;37.21;94502.13;4929525;29;9316;-57
2022/05/01 01:49:39;;;;;;;;;;;;;;;24.82;37.16;94504.63;4935944;28;7228;-57
2022/05/01 01:52:05;;;;;;;;;;;;;;;24.81;37.22;94502.38;4964312;28;9294;-57
2022/05/01 01:54:31;;;;;;;;;;;;;;;24.80;37.10;94506.38;4975268;28;8860;-57
2022/05/01 01:56:59;;;;;;;;;;;;;;;24.83;37.00;94500.63;4984173;28;7625;-57
2022/05/01 01:59:25;;;;;;;;;;;;;;;24.79;37.37;94496.63;5001922;28;8945;-57
2022/05/01 02:01:51;;;;;;;;;;;;;;;24.78;37.13;94501.38;4979720;28;7250;-57
2022/05/01 02:04:20;;;;;;;;;;;;;;;24.77;36.88;94502.66;4996836;28;7254;-57
2022/05/01 02:06:47;;;;;;;;;;;;;;;24.76;37.74;94503.13;4983317;28;9067;-57
2022/05/01 02:09:16;;;;;;;;;;;;;;;24.78;37.44;94504.13;4983396;28;9088;-57
2022/05/01 02:11:47;;;;;;;;;;;;;;;24.78;37.45;94501.38;4984627;28;7221;-57
2022/05/01 02:14:16;;;;;;;;;;;;;;;24.79;36.89;94499.38;4987243;28;7568;-57
2022/05/01 02:16:42;;;;;;;;;;;;;;;24.78;37.53;94493.13;4983860;28;9047;-58
2022/05/01 02:19:08;;;;;;;;;;;;;;;24.78;36.86;94493.13;4982327;28;6994;-59
2022/05/01 02:21:37;;;;;;;;;;;;;;;24.79;37.47;94499.38;4982790;28;7232;-57
2022/05/01 02:24:13;;;;;;;;;;;;;;;24.78;37.27;94498.63;4996802;28;7265;-57
2022/05/01 02:26:39;;;;;;;;;;;;;;;24.80;37.47;94495.38;4983463;28;9336;-57
2022/05/01 02:29:10;;;;;;;;;;;;;;;24.76;36.89;94497.63;4982178;28;7252;-59
2022/05/01 02:31:41;;;;;;;;;;;;;;;24.76;37.11;94494.88;4999666;28;7347;-57
2022/05/01 02:34:09;;;;;;;;;;;;;;;24.75;36.93;94493.41;5003612;28;7231;-57
2022/05/01 02:36:39;;;;;;;;;;;;;;;24.75;37.10;94487.91;4984341;28;7904;-57
2022/05/01 02:39:06;;;;;;;;;;;;;;;24.76;37.20;94492.13;4994716;28;9143;-57
2022/05/01 02:41:33;;;;;;;;;;;;;;;24.73;37.33;94487.63;4984159;28;9312;-57
2022/05/01 02:44:01;;;;;;;;;;;;;;;24.75;36.94;94487.91;4985873;28;7210;-57
2022/05/01 02:46:27;;;;;;;;;;;;;;;24.73;36.89;94486.34;4945503;28;1118606;-57
2022/05/01 02:48:56;;;;;;;;;;;;;;;24.72;37.25;94486.88;4970328;28;9445;-57
2022/05/01 02:51:22;;;;;;;;;;;;;;;24.77;36.86;94485.38;4993372;28;7901;-57
2022/05/01 02:53:50;;;;;;;;;;;;;;;24.73;37.17;94482.84;4999116;28;9033;-57
2022/05/01 02:56:16;;;;;;;;;;;;;;;24.78;36.93;94478.63;4991784;28;7440;-57
2022/05/01 02:58:42;;;;;;;;;;;;;;;24.79;37.00;94483.63;4989184;28;9588;-57
2022/05/01 03:01:10;;;;;;;;;;;;;;;24.78;37.03;94479.38;4982033;28;7231;-57
2022/05/01 03:03:36;;;;;;;;;;;;;;;24.80;36.92;94482.38;4988224;28;8754;-57
2022/05/01 03:06:08;;;;;;;;;;;;;;;24.78;36.84;94473.88;4986569;28;8786;-57
2022/05/01 03:08:38;;;;;;;;;;;;;;;24.78;36.84;94482.13;4984124;28;7828;-57
2022/05/01 03:11:09;;;;;;;;;;;;;;;24.77;37.21;94477.91;4990105;28;7245;-57
2022/05/01 03:13:37;;;;;;;;;;;;;;;24.75;36.85;94471.41;5003175;28;9124;-57
2022/05/01 03:16:03;;;;;;;;;;;;;;;24.76;37.43;94468.13;4986204;28;7006;-57
2022/05/01 03:24:02;;;;;;;;;;;;;;;24.73;37.00;94469.84;4984756;28;7518;-57
2022/05/01 03:26:28;;;;;;;;;;;;;;;24.71;36.71;94466.84;5001299;28;8787;-57
2022/05/01 03:28:56;;;;;;;;;;;;;;;24.73;36.94;94468.38;4986639;28;7280;-57
2022/05/01 03:31:22;;;;;;;;;;;;;;;24.73;37.27;94468.38;4984963;28;7466;-57
2022/05/01 03:33:50;;;;;;;;;;;;;;;24.72;37.07;94459.38;4985118;28;9365;-57
2022/05/01 03:36:16;;;;;;;;;;;;;;;24.73;36.98;94458.09;4999853;28;7219;-57
2022/05/01 03:38:43;;;;;;;;;;;;;;;24.70;36.85;94468.13;4998022;28;7500;-57
2022/05/01 03:41:13;;;;;;;;;;;;;;;24.70;36.85;94457.13;4997875;28;9078;-57
2022/05/01 03:43:43;;;;;;;;;;;;;;;24.71;37.05;94455.09;5005502;28;7276;-57
2022/05/01 03:46:10;;;;;;;;;;;;;;;24.72;37.05;94459.38;4978616;28;6999;-57
2022/05/01 03:48:38;;;;;;;;;;;;;;;24.72;36.75;94470.38;5002112;28;9273;-57
2022/05/01 03:51:04;;;;;;;;;;;;;;;24.70;36.93;94459.88;5003655;28;9117;-57
2022/05/01 03:53:32;;;;;;;;;;;;;;;24.73;36.87;94462.88;4985655;28;9966;-57
2022/05/01 03:56:00;;;;;;;;;;;;;;;24.71;36.72;94457.84;4984619;28;7259;-58
2022/05/01 03:58:29;;;;;;;;;;;;;;;24.70;36.57;94470.13;4986614;28;9396;-58
2022/05/01 04:00:59;;;;;;;;;;;;;;;24.71;37.19;94460.59;4984818;28;7592;-57
2022/05/01 04:03:25;;;;;;;;;;;;;;;24.70;36.74;94459.88;4984441;28;7063;-60
2022/05/01 04:05:53;;;;;;;;;;;;;;;24.69;36.91;94461.13;4986042;28;9366;-57
2022/05/01 04:08:31;;;;;;;;;;;;;;;24.68;36.91;94456.84;4987514;28;7025;-57
2022/05/01 04:11:05;;;;;;;;;;;;;;;24.69;37.15;94458.38;4986102;28;7516;-57
2022/05/01 04:13:32;;;;;;;;;;;;;;;24.67;37.13;94455.38;4981582;28;9516;-57
2022/05/01 04:15:59;;;;;;;;;;;;;;;24.67;37.00;94455.38;4974235;28;7969;-57
2022/05/01 04:18:25;;;;;;;;;;;;;;;24.66;37.19;94459.34;4997455;28;9008;-57
2022/05/01 04:20:52;;;;;;;;;;;;;;;24.66;37.03;94459.34;4987966;28;7072;-57
2022/05/01 04:23:22;;;;;;;;;;;;;;;24.69;36.70;94457.59;5001712;28;7520;-57
2022/05/01 04:25:50;;;;;;;;;;;;;;;24.69;36.76;94465.84;4979701;28;6998;-57
2022/05/01 04:28:19;;;;;;;;;;;;;;;24.69;36.84;94457.59;4986991;28;9113;-57
2022/05/01 04:30:50;;;;;;;;;;;;;;;24.65;37.36;94468.88;4986984;28;9427;-57
2022/05/01 04:33:29;;;;;;;;;;;;;;;24.65;36.66;94474.38;4984995;28;8752;-57
2022/05/01 04:35:55;;;;;;;;;;;;;;;24.65;36.59;94474.38;5007441;28;9390;-57
2022/05/01 04:38:26;;;;;;;;;;;;;;;24.63;36.99;94468.63;4989383;28;9404;-57
2022/05/01 04:40:54;;;;;;;;;;;;;;;24.64;37.30;94472.13;4983554;28;7326;-57
2022/05/01 04:43:22;;;;;;;;;;;;;;;24.61;36.74;94473.13;4989968;28;7098;-57
2022/05/01 04:46:01;;;;;;;;;;;;;;;24.61;37.05;94470.38;5006944;28;7319;-57
2022/05/01 04:48:27;;;;;;;;;;;;;;;24.61;36.75;94473.88;4990768;28;9259;-57
2022/05/01 04:50:54;;;;;;;;;;;;;;;24.62;36.52;94477.41;4990966;28;8754;-58
2022/05/01 04:53:28;;;;;;;;;;;;;;;24.60;37.24;94471.63;5001974;28;7833;-57
2022/05/01 04:57:04;;;;;;;;;;;;;;;24.62;36.72;94480.13;4990397;28;7288;-57
2022/05/01 04:58:49;;;;;;;;;;;;;;;24.63;36.99;94478.88;4989344;28;9234;-57
2022/05/01 05:01:36;;;;;;;;;;;;;;;24.61;36.79;94481.38;4985622;28;8490;-58
2022/05/01 05:04:04;;;;;;;;;;;;;;;24.62;36.78;94475.38;4983365;28;9568;-57
2022/05/01 05:06:31;;;;;;;;;;;;;;;24.63;37.22;94481.63;5006361;28;9089;-57
2022/05/01 05:11:43;;;;;;;;;;;;;;;24.59;37.03;94484.63;4989764;28;9399;-57
2022/05/01 05:14:14;;;;;;;;;;;;;;;24.60;36.99;94482.63;4988889;28;9446;-57
2022/05/01 05:16:44;;;;;;;;;;;;;;;24.59;37.02;94475.63;4989225;28;7581;-56
2022/05/01 05:19:16;;;;;;;;;;;;;;;24.61;36.90;94482.13;5005842;28;8337;-55
2022/05/01 05:21:50;;;;;;;;;;;;;;;24.59;36.94;94481.13;4990310;28;7142;-55
2022/05/01 05:24:16;;;;;;;;;;;;;;;24.59;36.66;94486.63;5002695;28;9136;-55
2022/05/01 05:26:47;;;;;;;;;;;;;;;24.59;37.33;94483.88;4989555;28;9024;-55
2022/05/01 05:29:22;;;;;;;;;;;;;;;24.57;37.05;94484.41;4989401;28;9101;-56
2022/05/01 05:31:52;;;;;;;;;;;;;;;24.57;36.89;94489.91;4987190;28;9062;-56
2022/05/01 05:34:30;;;;;;;;;;;;;;;24.56;36.45;94480.13;4988617;28;7086;-56
2022/05/01 05:36:58;;;;;;;;;;;;;;;24.56;37.23;94482.88;4987889;28;7045;-56
2022/05/01 05:39:24;;;;;;;;;;;;;;;24.56;37.42;94484.88;4984650;28;7948;-56
2022/05/01 05:41:50;;;;;;;;;;;;;;;24.54;37.98;94485.38;4984337;28;8952;-56
2022/05/01 05:44:16;;;;;;;;;;;;;;;24.50;38.12;94482.16;4980317;28;7260;-56
2022/05/01 05:46:42;;;;;;;;;;;;;;;24.46;38.01;94487.16;4989375;28;7252;-56
2022/05/01 05:49:10;;;;;;;;;;;;;;;24.48;38.00;94487.41;4985099;28;8809;-56
2022/05/01 05:51:36;;;;;;;;;;;;;;;24.47;37.90;94485.88;4999928;28;7239;-56
2022/05/01 05:54:02;;;;;;;;;;;;;;;24.48;37.30;94483.88;5000355;28;8946;-56
2022/05/01 05:56:38;;;;;;;;;;;;;;;24.52;37.40;94492.63;4988749;28;7369;-56
2022/05/01 05:59:10;;;;;;;;;;;;;;;24.52;37.41;94493.38;4976893;28;7988;-56
2022/05/01 06:01:37;;;;;;;;;;;;;;;24.52;37.25;94490.63;4983090;28;7279;-57
2022/05/01 06:04:23;;;;;;;;;;;;;;;24.45;36.96;94493.13;4988420;28;7179;-56
2022/05/01 06:06:49;;;;;;;;;;;;;;;24.41;36.83;94503.63;5000909;28;8907;-56
2022/05/01 06:09:26;;;;;;;;;;;;;;;24.33;37.18;94499.91;4990068;28;8991;-56
2022/05/01 06:12:01;;;;;;;;;;;;;;;24.36;37.24;94507.16;4991552;28;9066;-57
2022/05/01 06:14:36;;;;;;;;;;;;;;;24.38;37.24;94505.38;4988142;28;9770;-56
2022/05/01 06:17:02;;;;;;;;;;;;;;;24.42;36.88;94508.66;4978826;28;7691;-56
2022/05/01 06:19:36;;;;;;;;;;;;;;;24.45;37.14;94509.63;4988981;28;7071;-57
2022/05/01 06:22:09;;;;;;;;;;;;;;;24.47;37.69;94505.13;4985828;28;9324;-56
2022/05/01 06:24:42;;;;;;;;;;;;;;;24.45;37.28;94496.63;4989664;28;9531;-56
2022/05/01 06:27:11;;;;;;;;;;;;;;;24.52;37.50;94504.38;4981199;28;6906;-56
2022/05/01 06:29:44;;;;;;;;;;;;;;;24.56;37.41;94506.88;4987653;28;9696;-56
2022/05/01 06:32:29;;;;;;;;;;;;;;;24.59;37.18;94503.91;4984071;28;9150;-57
2022/05/01 06:34:56;;;;;;;;;;;;;;;24.62;37.67;94507.66;5008482;28;8473;-57
2022/05/01 06:37:25;;;;;;;;;;;;;;;24.62;37.43;94510.41;4988900;28;7194;-56
2022/05/01 06:39:51;;;;;;;;;;;;;;;24.63;37.53;94515.38;5010817;28;7207;-57
2022/05/01 06:42:20;;;;;;;;;;;;;;;24.67;36.83;94512.38;5004049;28;9094;-57
2022/05/01 06:44:48;;;;;;;;;;;;;;;24.69;37.83;94510.63;4987076;28;9186;-57
2022/05/01 06:47:14;;;;;;;;;;;;;;;24.70;37.85;94514.88;4990617;28;9396;-56
2022/05/01 06:49:40;;;;;;;;;;;;;;;24.73;37.46;94515.13;5006217;28;7240;-56
2022/05/01 06:52:09;;;;;;;;;;;;;;;24.75;37.68;94515.41;5000824;28;7824;-57
2022/05/01 06:54:35;;;;;;;;;;;;;;;24.76;37.54;94523.16;5002976;28;8901;-57
2022/05/01 06:57:02;;;;;;;;;;;;;;;24.77;37.16;94521.91;4996277;28;7307;-57
2022/05/01 06:59:35;;;;;;;;;;;;;;;24.78;37.28;94519.88;5002649;28;9402;-57
2022/05/01 07:02:06;;;;;;;;;;;;;;;24.80;37.56;94518.13;4988927;28;8996;-57
2022/05/01 07:05:00;;;;;;;;;;;;;;;24.83;37.43;94519.91;5006703;28;7344;-57
2022/05/01 07:07:27;;;;;;;;;;;;;;;24.89;37.44;94528.13;4964260;28;7112;-57
2022/05/01 07:09:53;;;;;;;;;;;;;;;24.96;37.06;94525.63;4962505;28;8845;-57
2022/05/01 07:12:19;;;;;;;;;;;;;;;25.02;37.37;94514.59;4948337;28;7989;-57
2022/05/01 07:14:45;;;;;;;;;;;;;;;25.12;37.15;94516.56;4961655;28;9014;-57
2022/05/01 07:17:18;;;;;;;;;;;;;;;25.19;36.57;94518.03;4942159;28;7209;-57
2022/05/01 07:19:45;;;;;;;;;;;;;;;25.27;37.20;94508.03;4934920;28;9196;-57
2022/05/01 07:22:18;;;;;;;;;;;;;;;25.35;36.91;94509.00;4953956;28;8478;-57
2022/05/01 07:24:52;;;;;;;;;;;;;;;25.39;37.02;94506.72;4950190;28;7286;-56
2022/05/01 07:27:18;;;;;;;;;;;;;;;25.44;36.04;94503.25;4952954;28;8724;-56
2022/05/01 07:29:45;;;;;;;;;;;;;;;25.48;36.13;94508.47;4947540;28;7187;-57
2022/05/01 07:32:24;;;;;;;;;;;;;;;25.54;36.44;94503.69;4947087;28;7167;-57
2022/05/01 07:35:00;;;;;;;;;;;;;;;25.58;36.22;94502.16;4951623;28;9064;-57
2022/05/01 07:37:26;;;;;;;;;;;;;;;25.63;36.16;94498.63;4950078;28;7053;-56
2022/05/01 07:39:54;;;;;;;;;;;;;;;25.67;35.88;94496.38;4966998;28;7084;-56
2022/05/01 07:42:22;;;;;;;;;;;;;;;25.70;36.35;94495.34;4941967;28;7075;-57
2022/05/01 07:44:48;;;;;;;;;;;;;;;25.73;35.74;94499.81;4993689;28;7633;-57
2022/05/01 07:47:14;;;;;;;;;;;;;;;25.77;35.95;94497.56;5001125;28;8308;-57
2022/05/01 07:49:41;;;;;;;;;;;;;;;25.79;36.28;94486.78;5008339;28;7080;-57
2022/05/01 07:52:13;;;;;;;;;;;;;;;25.77;35.88;94486.56;4987340;28;10509;-56
2022/05/01 07:54:58;;;;;;;;;;;;;;;25.82;35.66;94494.03;4985659;28;7059;-56
2022/05/01 07:57:26;;;;;;;;;;;;;;;25.85;35.57;94486.75;4963501;28;7286;-56
2022/05/01 08:00:13;;;;;;;;;;;;;;;25.86;35.92;94483.47;5005465;28;9068;-56
2022/05/01 08:05:28;;;;;;;;;;;;;;;25.90;35.39;94486.69;4986337;28;9454;-57
2022/05/01 08:07:54;;;;;;;;;;;;;;;25.92;35.67;94481.47;4985366;28;9362;-57
2022/05/01 08:10:20;;;;;;;;;;;;;;;25.94;35.60;94483.69;4983748;28;8770;-57
2022/05/01 08:12:47;;;;;;;;;;;;;;;25.96;35.43;94487.44;5003257;28;9413;-57
2022/05/01 08:15:17;;;;;;;;;;;;;;;25.96;36.32;94487.44;4985673;28;7435;-58
2022/05/01 08:17:44;;;;;;;;;;;;;;;25.97;35.56;94482.66;4996138;28;9501;-57
2022/05/01 08:23:08;;;;;;;;;;;;;;;25.99;36.46;94486.41;4986022;28;7216;-57
2022/05/01 08:25:37;;;;;;;;;;;;;;;26.02;35.54;94485.38;4987039;28;7066;-57
2022/05/01 08:28:16;;;;;;;;;;;;;;;26.03;35.63;94477.88;5001265;28;7288;-57
2022/05/01 08:30:52;;;;;;;;;;;;;;;26.02;35.94;94474.38;4983776;28;7476;-57
2022/05/01 08:33:23;;;;;;;;;;;;;;;26.05;36.09;94478.09;4985260;28;8711;-57
2022/05/01 08:35:52;;;;;;;;;;;;;;;26.03;35.58;94475.84;4984609;28;6991;-57
2022/05/01 08:38:18;;;;;;;;;;;;;;;26.00;36.07;94476.13;4978571;28;8687;-57
2022/05/01 08:40:50;;;;;;;;;;;;;;;26.02;35.52;94479.13;4985416;28;9090;-58
2022/05/01 08:43:21;;;;;;;;;;;;;;;26.03;36.26;94478.59;4976770;28;8935;-57
2022/05/01 08:45:53;;;;;;;;;;;;;;;26.03;35.51;94477.88;4984673;28;9448;-57
2022/05/01 08:48:29;;;;;;;;;;;;;;;26.02;35.64;94476.38;5004050;28;7131;-56
2022/05/01 08:50:56;;;;;;;;;;;;;;;26.00;36.36;94481.63;4991616;28;9246;-57
2022/05/01 08:53:23;;;;;;;;;;;;;;;26.01;36.29;94477.63;5000749;28;7286;-57
2022/05/01 08:55:50;;;;;;;;;;;;;;;26.01;36.55;94472.84;4987921;28;7362;-57
2022/05/01 08:58:19;;;;;;;;;;;;;;;25.99;36.11;94474.66;5006433;28;7056;-56
2022/05/01 09:00:49;;;;;;;;;;;;;;;25.99;36.19;94469.13;5005842;28;8682;-57
2022/05/01 09:03:34;;;;;;;;;;;;;;;25.98;35.73;94473.91;5007863;28;9127;-57
2022/05/01 09:06:05;;;;;;;;;;;;;;;25.96;35.68;94470.16;4998726;28;8207;-57
2022/05/01 09:08:32;;;;;;;;;;;;;;;25.96;36.13;94472.91;4998895;28;9829;-57
2022/05/01 09:12:49;;;;;;;;;;;;;;;25.95;36.70;94474.16;4980246;28;6860;-58
2022/05/01 09:13:45;;;;;;;;;;;;;;;25.93;36.92;94471.16;4991180;28;8767;-58
2022/05/01 09:16:15;;;;;;;;;;;;;;;25.91;36.76;94470.91;5005324;28;9405;-57
2022/05/01 09:18:47;;;;;;;;;;;;;;;25.90;36.81;94474.94;5003812;28;9075;-57
2022/05/01 09:21:14;;;;;;;;;;;;;;;25.86;36.41;94472.44;5007969;28;9119;-57
2022/05/01 09:23:41;;;;;;;;;;;;;;;25.88;36.78;94475.44;4986742;28;7251;-57
2022/05/01 09:26:10;;;;;;;;;;;;;;;25.85;36.17;94470.22;4980194;28;7373;-57
2022/05/01 09:28:46;;;;;;;;;;;;;;;25.84;36.55;94471.47;4989722;28;7508;-57
2022/05/01 09:31:12;;;;;;;;;;;;;;;25.81;37.01;94467.75;4995401;28;7246;-57
2022/05/01 09:33:39;;;;;;;;;;;;;;;25.81;37.00;94469.75;4999241;28;7058;-57
2022/05/01 09:36:08;;;;;;;;;;;;;;;25.79;36.40;94462.00;4987555;28;7212;-57
2022/05/01 09:38:35;;;;;;;;;;;;;;;25.80;37.07;94463.47;5006784;28;7162;-57
2022/05/01 09:41:14;;;;;;;;;;;;;;;25.79;36.30;94464.75;4989886;28;8438;-57
2022/05/01 09:43:45;;;;;;;;;;;;;;;25.77;36.43;94470.03;5004822;28;7401;-58
2022/05/01 09:46:13;;;;;;;;;;;;;;;25.75;36.42;94464.25;4989621;28;7069;-57
2022/05/01 09:48:43;;;;;;;;;;;;;;;25.75;36.49;94466.28;5012099;28;7070;-58
2022/05/01 09:51:17;;;;;;;;;;;;;;;25.78;36.17;94459.72;5004793;28;9507;-58
2022/05/01 09:53:45;;;;;;;;;;;;;;;25.77;36.47;94461.00;4989122;28;7419;-58
2022/05/01 09:56:16;;;;;;;;;;;;;;;25.73;36.62;94457.78;5005367;28;7135;-58
2022/05/01 09:59:14;;;;;;;;;;;;;;;25.76;36.44;94460.25;4989296;28;7111;-58
2022/05/01 10:02:03;;;;;;;;;;;;;;;25.73;36.33;94461.25;4969385;28;8791;-58
2022/05/01 10:04:38;;;;;;;;;;;;;;;25.75;36.88;94460.78;4969277;28;9095;-58
2022/05/01 10:07:16;;;;;;;;;;;;;;;25.73;37.13;94463.28;4968715;28;9120;-58
2022/05/01 10:09:46;;;;;;;;;;;;;;;25.72;36.55;94459.03;4968298;28;7034;-58
2022/05/01 10:12:28;;;;;;;;;;;;;;;25.72;37.27;94453.50;4951361;28;7421;-58
2022/05/01 10:14:56;;;;;;;;;;;;;;;25.73;36.34;94463.28;4962568;28;9253;-57
2022/05/01 10:17:33;;;;;;;;;;;;;;;25.73;36.88;94458.50;4952385;28;7702;-58
2022/05/01 10:20:03;;;;;;;;;;;;;;;25.77;36.51;94461.75;4953483;28;7983;-58
2022/05/01 10:22:32;;;;;;;;;;;;;;;25.76;36.33;94459.50;4963829;28;8613;-57
2022/05/01 10:24:58;;;;;;;;;;;;;;;25.75;36.63;94458.75;4950132;28;9778;-57
2022/05/01 10:27:54;;;;;;;;;;;;;;;25.72;36.57;94451.50;4943264;28;9256;-57
2022/05/01 10:33:45;;;;;;;;;;;;;;;25.69;37.20;94458.03;4962560;28;9077;-56
2022/05/01 10:36:42;;;;;;;;;;;;;;;25.72;36.99;94450.75;4953008;28;7215;-56
2022/05/01 10:39:17;;;;;;;;;;;;;;;25.72;37.13;94450.75;4987622;28;7407;-57
2022/05/01 10:41:45;;;;;;;;;;;;;;;25.70;37.46;94442.25;4986791;28;7198;-56
2022/05/01 10:44:30;;;;;;;;;;;;;;;25.71;37.84;94449.28;5004168;28;7348;-57
2022/05/01 10:47:13;;;;;;;;;;;;;;;25.69;37.48;94444.25;4995921;28;9291;-57
2022/05/01 10:49:41;;;;;;;;;;;;;;;25.69;38.39;94438.75;4990315;28;7252;-57
2022/05/01 10:52:22;;;;;;;;;;;;;;;25.70;39.05;94429.25;4989923;28;7697;-58
2022/05/01 10:55:04;;;;;;;;;;;;;;;25.73;39.26;94438.50;4989055;28;7276;-57
2022/05/01 10:57:32;;;;;;;;;;;;;;;25.71;39.26;94427.97;4988370;28;8680;-58
2022/05/01 11:00:10;;;;;;;;;;;;;;;25.74;38.53;94421.44;4997786;28;7318;-57
2022/05/01 11:02:38;;;;;;;;;;;;;;;25.76;38.60;94418.16;4985057;28;7588;-58
2022/05/01 11:05:07;;;;;;;;;;;;;;;25.73;39.07;94417.19;4998105;28;8764;-56
2022/05/01 11:07:39;;;;;;;;;;;;;;;25.71;38.70;94416.22;4988577;28;9044;-58
2022/05/01 11:10:10;;;;;;;;;;;;;;;25.72;37.89;94409.44;4988464;28;9068;-57
2022/05/01 11:12:37;;;;;;;;;;;;;;;25.72;38.04;94415.69;5003304;28;7262;-58
2022/05/01 11:15:47;;;;;;;;;;;;;;;25.73;38.19;94403.41;4994950;28;9548;-58
2022/05/01 11:19:08;;;;;;;;;;;;;;;25.74;38.16;94404.16;4920029;29;9516;-58
2022/05/01 11:21:38;;;;;;;;;;;;;;;25.72;38.22;94399.16;4874338;29;8664;-57
2022/05/01 11:24:05;;;;;;;;;;;;;;;25.74;38.19;94404.91;4869790;29;9058;-58
2022/05/01 11:26:34;;;;;;;;;;;;;;;25.72;38.60;94393.66;4851396;29;9434;-57
2022/05/01 11:29:13;;;;;;;;;;;;;;;25.72;38.75;94396.41;4868701;29;7103;-57
2022/05/01 11:31:44;;;;;;;;;;;;;;;25.71;38.46;94399.69;4864432;29;8825;-57
2022/05/01 11:34:16;;;;;;;;;;;;;;;25.75;38.54;94400.88;4853819;29;7723;-57
2022/05/01 11:36:51;;;;;;;;;;;;;;;25.74;37.92;94399.41;4869840;29;9049;-57
2022/05/01 11:39:17;;;;;;;;;;;;;;;25.75;38.72;94398.13;4869944;29;7096;-59
2022/05/01 11:41:43;;;;;;;;;;;;;;;25.77;38.92;94398.41;4871792;29;9092;-57
2022/05/01 11:44:23;;;;;;;;;;;;;;;25.79;38.65;94395.88;4847358;29;7008;-56
2022/05/01 11:46:51;;;;;;;;;;;;;;;25.79;38.57;94390.38;4855507;29;6857;-57
2022/05/01 11:49:18;;;;;;;;;;;;;;;25.80;38.99;94389.09;4855797;29;9364;-57
2022/05/01 11:51:47;;;;;;;;;;;;;;;25.80;38.35;94383.56;4879841;28;9049;-57
2022/05/01 11:54:15;;;;;;;;;;;;;;;25.81;38.43;94387.84;4939738;28;8307;-56
2022/05/01 12:02:25;;;;;;;;;;;;;;;25.83;37.93;94368.78;4983236;28;9646;-57
2022/05/01 12:05:04;;;;;;;;;;;;;;;25.86;37.45;94372.53;4982956;28;6940;-57
2022/05/01 12:07:32;;;;;;;;;;;;;;;25.89;37.59;94368.72;4980933;28;8778;-57
2022/05/01 12:09:58;;;;;;;;;;;;;;;25.90;37.28;94359.94;4983652;28;9279;-57
2022/05/01 12:12:40;;;;;;;;;;;;;;;25.92;37.68;94360.19;4987546;28;9085;-57
2022/05/01 12:15:07;;;;;;;;;;;;;;;25.93;38.02;94356.16;5005385;28;9181;-57
2022/05/01 12:17:39;;;;;;;;;;;;;;;25.94;38.05;94354.94;4997142;28;9459;-57
2022/05/01 12:20:06;;;;;;;;;;;;;;;25.93;38.36;94349.91;5004011;28;7687;-57
2022/05/01 12:22:37;;;;;;;;;;;;;;;25.96;38.33;94351.66;4985394;28;7232;-56
2022/05/01 12:25:10;;;;;;;;;;;;;;;25.96;37.82;94344.13;5005200;28;9491;-57
2022/05/01 12:27:43;;;;;;;;;;;;;;;25.98;38.50;94347.13;4990381;28;7063;-57
2022/05/01 12:30:50;;;;;;;;;;;;;;;25.99;37.66;94348.59;4987418;28;9122;-58
2022/05/01 12:33:21;;;;;;;;;;;;;;;26.02;38.30;94342.06;4946674;28;7007;-58
2022/05/01 12:35:58;;;;;;;;;;;;;;;25.99;37.93;94343.09;4940423;28;7215;-57
2022/05/01 12:38:29;;;;;;;;;;;;;;;25.94;37.33;94346.66;4945924;28;7147;-56
2022/05/01 12:44:00;;;;;;;;;;;;;;;25.91;37.18;94346.91;4941642;28;8906;-58
2022/05/01 12:46:28;;;;;;;;;;;;;;;25.92;37.26;94345.66;4942056;28;9067;-58
2022/05/01 12:48:56;;;;;;;;;;;;;;;25.94;36.97;94348.66;4937612;28;7089;-58
2022/05/01 12:51:33;;;;;;;;;;;;;;;25.95;37.55;94334.34;4942472;28;7377;-58
2022/05/01 12:54:11;;;;;;;;;;;;;;;26.00;37.32;94339.09;4929582;28;7070;-58
2022/05/01 12:56:37;;;;;;;;;;;;;;;26.01;36.55;94332.28;4945375;28;8932;-57
2022/05/01 12:59:31;;;;;;;;;;;;;;;25.98;36.31;94341.59;4928066;28;8738;-57
2022/05/01 13:01:59;;;;;;;;;;;;;;;25.94;37.44;94330.13;4937464;28;7960;-58
2022/05/01 13:04:29;;;;;;;;;;;;;;;25.93;36.87;94331.38;4942216;28;9394;-58
2022/05/01 13:06:56;;;;;;;;;;;;;;;25.93;36.70;94322.34;4955149;28;7184;-58
2022/05/01 13:09:23;;;;;;;;;;;;;;;25.93;37.43;94328.63;4996299;28;9484;-58
2022/05/01 13:12:06;;;;;;;;;;;;;;;25.96;37.92;94330.34;4996173;28;9108;-58
2022/05/01 13:14:36;;;;;;;;;;;;;;;25.96;37.90;94322.09;4966663;28;9765;-58
2022/05/01 13:17:11;;;;;;;;;;;;;;;25.99;37.68;94321.03;4996789;28;9441;-58
2022/05/01 13:19:38;;;;;;;;;;;;;;;26.01;38.31;94315.75;4982931;28;9212;-57
2022/05/01 13:22:07;;;;;;;;;;;;;;;26.01;37.64;94309.53;4996687;28;9534;-56
2022/05/01 13:24:37;;;;;;;;;;;;;;;26.06;37.47;94319.72;4980459;28;9153;-57
2022/05/01 13:27:08;;;;;;;;;;;;;;;26.07;37.84;94316.47;4985732;28;7261;-57
2022/05/01 13:29:37;;;;;;;;;;;;;;;26.12;37.88;94299.13;4999756;28;9145;-57
2022/05/01 13:32:15;;;;;;;;;;;;;;;26.16;37.13;94302.34;5000922;28;7000;-58
2022/05/01 13:34:44;;;;;;;;;;;;;;;26.16;37.01;94302.34;4998621;28;9249;-57
2022/05/01 13:37:37;;;;;;;;;;;;;;;26.16;37.18;94304.38;4985979;28;7276;-57
2022/05/01 13:45:43;;;;;;;;;;;;;;;26.21;37.29;94297.31;4893414;29;9032;-56
2022/05/01 13:48:10;;;;;;;;;;;;;;;26.16;37.27;94296.13;4887214;29;9520;-58
2022/05/01 13:50:39;;;;;;;;;;;;;;;26.19;37.50;94297.09;4902732;29;8775;-58
2022/05/01 13:53:12;;;;;;;;;;;;;;;26.17;37.20;94292.84;4904203;29;9555;-57
2022/05/01 13:55:39;;;;;;;;;;;;;;;26.17;37.12;94292.84;4889469;29;7242;-57
2022/05/01 13:58:06;;;;;;;;;;;;;;;26.19;37.20;94294.34;4887904;29;8308;-58